createdAt,value
2022-08-26T00:02:19.387Z,20.91
2022-08-26T00:04:49.760Z,20.91
2022-08-26T00:07:20.857Z,20.91
2022-08-26T00:09:50.172Z,20.93
2022-08-26T00:12:37.349Z,20.76
2022-08-26T00:15:08.911Z,20.90
2022-08-26T00:17:40.332Z,20.89
2022-08-26T00:20:12.685Z,20.85
2022-08-26T00:22:44.891Z,20.78
2022-08-26T00:25:14.196Z,20.23
2022-08-26T00:27:46.088Z,20.71
2022-08-26T00:30:22.683Z,20.69
2022-08-26T00:32:52.470Z,20.52
2022-08-26T00:35:23.200Z,20.51
2022-08-26T00:37:54.050Z,20.65
2022-08-26T00:40:29.414Z,20.42
2022-08-26T00:42:58.626Z,20.62
2022-08-26T00:45:27.724Z,20.63
2022-08-26T00:48:02.344Z,20.54
2022-08-26T00:50:37.212Z,19.10
2022-08-26T00:53:24.011Z,20.58
2022-08-26T00:56:00.878Z,20.59
2022-08-26T00:58:34.071Z,20.59
2022-08-26T01:01:03.415Z,20.34
2022-08-26T01:03:35.522Z,19.85
2022-08-26T01:06:12.396Z,20.52
2022-08-26T01:08:43.507Z,20.50
2022-08-26T01:11:14.155Z,20.20
2022-08-26T01:13:45.594Z,20.48
2022-08-26T01:16:17.406Z,20.49
2022-08-26T01:18:46.984Z,20.43
2022-08-26T01:21:27.386Z,20.38
2022-08-26T01:24:01.338Z,20.22
2022-08-26T01:26:36.148Z,20.35
2022-08-26T01:29:08.368Z,20.05
2022-08-26T01:31:43.739Z,20.09
2022-08-26T01:34:23.345Z,19.98
2022-08-26T01:37:07.088Z,20.09
2022-08-26T01:39:39.421Z,20.30
2022-08-26T01:42:15.185Z,20.37
2022-08-26T01:44:50.319Z,20.37
2022-08-26T01:47:23.230Z,20.31
2022-08-26T01:49:57.587Z,20.13
2022-08-26T01:52:29.410Z,20.34
2022-08-26T01:55:01.917Z,20.26
2022-08-26T01:57:31.832Z,20.21
2022-08-26T02:00:22.054Z,20.21
2022-08-26T02:03:17.157Z,20.05
2022-08-26T02:05:54.156Z,20.20
2022-08-26T02:08:39.689Z,20.19
2022-08-26T02:11:18.316Z,20.18
2022-08-26T02:13:52.655Z,19.29
2022-08-26T02:16:30.473Z,19.64
2022-08-26T02:19:06.112Z,20.01
2022-08-26T02:21:39.014Z,19.96
2022-08-26T02:24:13.917Z,19.89
2022-08-26T02:26:46.077Z,19.82
2022-08-26T02:29:30.738Z,19.71
2022-08-26T02:32:01.062Z,19.70
2022-08-26T02:34:33.262Z,19.41
2022-08-26T02:37:08.416Z,19.66
2022-08-26T02:39:48.629Z,19.82
2022-08-26T02:42:19.274Z,19.77
2022-08-26T02:44:48.222Z,19.72
2022-08-26T02:47:17.734Z,19.70
2022-08-26T02:49:47.775Z,19.68
2022-08-26T02:52:17.350Z,19.62
2022-08-26T02:54:49.630Z,19.58
2022-08-26T02:57:22.144Z,19.57
2022-08-26T02:59:51.233Z,19.52
2022-08-26T03:02:21.134Z,19.49
2022-08-26T03:04:58.124Z,19.46
2022-08-26T03:07:31.475Z,19.48
2022-08-26T03:10:00.790Z,19.46
2022-08-26T03:12:31.101Z,19.52
2022-08-26T03:15:01.346Z,19.58
2022-08-26T03:17:30.611Z,19.63
2022-08-26T03:19:59.888Z,19.63
2022-08-26T03:22:28.849Z,19.69
2022-08-26T03:24:57.696Z,19.63
2022-08-26T03:27:26.557Z,19.58
2022-08-26T03:30:15.609Z,19.59
2022-08-26T03:32:44.579Z,18.50
2022-08-26T03:35:13.778Z,19.64
2022-08-26T03:37:42.886Z,19.68
2022-08-26T03:40:12.969Z,19.73
2022-08-26T03:42:45.455Z,19.48
2022-08-26T03:45:17.556Z,19.78
2022-08-26T03:47:48.113Z,19.70
2022-08-26T03:50:22.890Z,19.31
2022-08-26T03:52:55.373Z,19.93
2022-08-26T03:55:27.013Z,19.98
2022-08-26T03:57:56.486Z,19.97
2022-08-26T04:00:28.064Z,19.99
2022-08-26T04:02:58.169Z,19.99
2022-08-26T04:05:27.875Z,20.00
2022-08-26T04:07:57.316Z,19.99
2022-08-26T04:10:29.110Z,20.01
2022-08-26T04:12:59.912Z,19.20
2022-08-26T04:15:30.439Z,20.00
2022-08-26T04:17:59.072Z,19.98
2022-08-26T04:20:29.118Z,19.95
2022-08-26T04:22:58.137Z,19.96
2022-08-26T04:25:27.007Z,19.96
2022-08-26T04:27:56.656Z,19.98
2022-08-26T04:30:26.488Z,20.03
2022-08-26T04:32:56.988Z,20.09
2022-08-26T04:35:26.730Z,20.14
2022-08-26T04:37:56.271Z,20.03
2022-08-26T04:40:27.700Z,20.25
2022-08-26T04:42:57.038Z,20.33
2022-08-26T04:45:26.695Z,20.41
2022-08-26T04:47:57.856Z,20.25
2022-08-26T04:50:27.086Z,20.52
2022-08-26T04:52:56.559Z,20.59
2022-08-26T04:55:38.480Z,20.65
2022-08-26T04:58:10.395Z,20.71
2022-08-26T05:00:40.481Z,20.83
2022-08-26T05:03:10.932Z,20.96
2022-08-26T05:05:44.797Z,20.76
2022-08-26T05:08:18.333Z,21.13
2022-08-26T05:10:50.697Z,20.93
2022-08-26T05:13:21.912Z,21.06
2022-08-26T05:15:51.989Z,21.25
2022-08-26T05:18:27.624Z,21.34
2022-08-26T05:20:56.532Z,21.41
2022-08-26T05:23:26.371Z,21.50
2022-08-26T05:25:59.382Z,21.53
2022-08-26T05:28:32.346Z,21.53
2022-08-26T05:31:01.411Z,21.54
2022-08-26T05:33:31.491Z,21.23
2022-08-26T05:36:07.678Z,21.49
2022-08-26T05:38:37.987Z,21.37
2022-08-26T05:41:16.650Z,21.29
2022-08-26T05:43:46.327Z,21.57
2022-08-26T05:46:16.179Z,21.63
2022-08-26T05:48:47.004Z,21.70
2022-08-26T05:51:16.825Z,21.77
2022-08-26T05:53:54.666Z,21.43
2022-08-26T05:56:27.767Z,21.73
2022-08-26T05:58:58.343Z,21.68
2022-08-26T06:01:30.314Z,22.05
2022-08-26T06:04:02.782Z,22.13
2022-08-26T06:06:34.436Z,22.24
2022-08-26T06:09:09.444Z,20.89
2022-08-26T06:11:40.447Z,22.49
2022-08-26T06:14:10.224Z,22.17
2022-08-26T06:16:43.889Z,22.68
2022-08-26T06:19:17.449Z,23.01
2022-08-26T06:21:53.946Z,22.74
2022-08-26T06:24:41.379Z,23.26
2022-08-26T06:27:13.945Z,23.32
2022-08-26T06:29:44.112Z,23.39
2022-08-26T06:32:13.456Z,23.48
2022-08-26T06:34:43.907Z,23.63
2022-08-26T06:37:13.955Z,23.83
2022-08-26T06:39:42.992Z,23.94
2022-08-26T06:42:12.078Z,23.90
2022-08-26T06:44:44.600Z,23.99
2022-08-26T06:47:13.796Z,23.84
2022-08-26T06:49:44.418Z,23.91
2022-08-26T06:52:13.511Z,24.03
2022-08-26T06:54:43.247Z,24.15
2022-08-26T06:57:14.366Z,24.20
2022-08-26T06:59:45.786Z,23.94
2022-08-26T07:02:15.325Z,23.94
2022-08-26T07:04:48.222Z,24.10
2022-08-26T07:07:22.041Z,24.28
2022-08-26T07:09:52.679Z,24.44
2022-08-26T07:12:21.587Z,24.18
2022-08-26T07:14:50.859Z,24.64
2022-08-26T07:17:20.516Z,24.77
2022-08-26T07:19:51.062Z,24.92
2022-08-26T07:22:21.723Z,25.05
2022-08-26T07:24:51.061Z,25.03
2022-08-26T07:27:20.276Z,24.92
2022-08-26T07:29:49.800Z,24.49
2022-08-26T07:32:22.974Z,25.06
2022-08-26T07:34:53.778Z,25.14
2022-08-26T07:37:22.996Z,24.98
2022-08-26T07:39:52.525Z,24.96
2022-08-26T07:42:22.334Z,24.66
2022-08-26T07:44:53.032Z,25.08
2022-08-26T07:47:25.255Z,25.14
2022-08-26T07:49:58.928Z,25.21
2022-08-26T07:52:31.213Z,25.16
2022-08-26T07:55:04.462Z,25.13
2022-08-26T07:57:33.778Z,25.24
2022-08-26T08:00:08.981Z,25.31
2022-08-26T08:02:41.002Z,25.32
2022-08-26T08:05:12.465Z,25.22
2022-08-26T08:07:45.398Z,25.28
2022-08-26T08:10:19.347Z,25.37
2022-08-26T08:12:50.777Z,25.43
2022-08-26T08:15:21.915Z,25.53
2022-08-26T08:17:51.626Z,25.58
2022-08-26T08:20:23.174Z,25.61
2022-08-26T08:22:53.222Z,25.51
2022-08-26T08:25:23.846Z,25.31
2022-08-26T08:27:52.746Z,25.63
2022-08-26T08:30:25.237Z,24.62
2022-08-26T08:32:54.938Z,25.61
2022-08-26T08:35:26.543Z,25.73
2022-08-26T08:37:56.682Z,25.82
2022-08-26T08:40:29.222Z,25.91
2022-08-26T08:43:04.929Z,25.11
2022-08-26T08:45:38.356Z,25.94
2022-08-26T08:48:27.855Z,25.97
2022-08-26T08:51:16.775Z,25.96
2022-08-26T08:53:54.676Z,26.05
2022-08-26T08:56:32.087Z,25.86
2022-08-26T08:59:14.073Z,26.19
2022-08-26T09:01:56.755Z,26.24
2022-08-26T09:04:57.814Z,26.15
2022-08-26T09:07:36.711Z,26.37
2022-08-26T09:10:34.114Z,26.44
2022-08-26T09:13:09.787Z,26.04
2022-08-26T09:16:02.364Z,26.34
2022-08-26T09:19:03.973Z,26.58
2022-08-26T09:21:34.562Z,26.57
2022-08-26T09:24:05.357Z,26.18
2022-08-26T09:26:48.018Z,26.57
2022-08-26T09:29:27.255Z,26.81
2022-08-26T09:32:20.277Z,26.72
2022-08-26T09:35:00.236Z,26.91
2022-08-26T09:37:43.259Z,26.85
2022-08-26T09:40:23.921Z,26.95
2022-08-26T09:43:22.165Z,26.53
2022-08-26T09:45:59.434Z,26.93
2022-08-26T09:48:37.173Z,26.87
2022-08-26T09:51:32.163Z,27.16
2022-08-26T09:54:05.646Z,27.10
2022-08-26T09:56:42.642Z,27.31
2022-08-26T09:59:15.058Z,27.37
2022-08-26T10:01:48.358Z,27.47
2022-08-26T10:04:26.754Z,27.53
2022-08-26T10:07:03.116Z,27.56
2022-08-26T10:09:37.364Z,27.45
2022-08-26T10:12:14.892Z,27.61
2022-08-26T10:14:53.257Z,26.08
2022-08-26T10:17:30.926Z,27.82
2022-08-26T10:20:23.238Z,27.89
2022-08-26T10:23:02.392Z,27.96
2022-08-26T10:25:38.842Z,27.95
2022-08-26T10:28:23.727Z,28.04
2022-08-26T10:31:05.963Z,26.90
2022-08-26T10:33:35.141Z,28.19
2022-08-26T10:36:39.289Z,28.09
2022-08-26T10:39:23.948Z,28.15
2022-08-26T10:41:58.260Z,28.26
2022-08-26T10:44:32.135Z,28.45
2022-08-26T10:47:13.043Z,28.53
2022-08-26T10:49:44.394Z,27.56
2022-08-26T10:52:18.563Z,28.64
2022-08-26T10:55:02.076Z,27.08
2022-08-26T10:57:47.220Z,28.15
2022-08-26T11:00:40.877Z,28.58
2022-08-26T11:03:31.547Z,28.98
2022-08-26T11:06:33.760Z,29.03
2022-08-26T11:09:12.042Z,28.98
2022-08-26T11:11:51.548Z,28.96
2022-08-26T11:14:53.347Z,28.89
2022-08-26T11:18:02.315Z,28.87
2022-08-26T11:20:41.848Z,28.94
2022-08-26T11:23:50.446Z,28.70
2022-08-26T11:26:37.786Z,29.06
2022-08-26T11:29:59.321Z,29.18
2022-08-26T11:32:48.713Z,29.23
2022-08-26T11:35:52.373Z,29.33
2022-08-26T11:38:29.631Z,29.42
2022-08-26T11:41:13.355Z,29.52
2022-08-26T11:43:42.609Z,29.69
2022-08-26T11:46:13.768Z,29.74
2022-08-26T11:48:44.657Z,29.67
2022-08-26T11:51:24.936Z,29.49
2022-08-26T11:54:10.681Z,29.80
2022-08-26T11:56:42.945Z,30.20
2022-08-26T11:59:19.120Z,29.57
2022-08-26T12:01:53.371Z,30.78
2022-08-26T12:04:31.456Z,30.75
2022-08-26T12:07:03.641Z,30.36
2022-08-26T12:09:35.836Z,29.61
2022-08-26T12:12:17.887Z,30.26
2022-08-26T12:14:46.985Z,30.27
2022-08-26T12:17:27.264Z,30.02
2022-08-26T12:19:56.373Z,30.41
2022-08-26T12:22:33.245Z,29.67
2022-08-26T12:25:10.863Z,29.31
2022-08-26T12:27:45.716Z,30.22
2022-08-26T12:30:26.160Z,30.25
2022-08-26T12:33:15.759Z,30.21
2022-08-26T12:35:56.398Z,30.33
2022-08-26T12:38:28.674Z,30.32
2022-08-26T12:40:58.916Z,30.92
2022-08-26T12:43:45.122Z,30.93
2022-08-26T12:46:19.228Z,31.61
2022-08-26T12:48:51.059Z,31.00
2022-08-26T12:51:27.427Z,31.47
2022-08-26T12:54:04.406Z,31.50
2022-08-26T12:56:39.969Z,31.42
2022-08-26T12:59:28.334Z,30.83
2022-08-26T13:01:58.107Z,31.26
2022-08-26T13:04:44.878Z,30.41
2022-08-26T13:07:23.303Z,29.84
2022-08-26T13:09:59.108Z,30.82
2022-08-26T13:12:37.616Z,31.08
2022-08-26T13:15:08.964Z,30.36
2022-08-26T13:17:40.678Z,31.56
2022-08-26T13:20:10.891Z,31.98
2022-08-26T13:22:47.388Z,32.41
2022-08-26T13:25:32.830Z,32.39
2022-08-26T13:28:02.233Z,32.17
2022-08-26T13:30:31.562Z,32.01
2022-08-26T13:33:06.891Z,31.33
2022-08-26T13:35:58.544Z,31.90
2022-08-26T13:38:32.918Z,31.82
2022-08-26T13:41:05.006Z,31.68
2022-08-26T13:43:34.842Z,31.42
2022-08-26T13:46:05.452Z,31.14
2022-08-26T13:48:35.358Z,30.94
2022-08-26T13:51:08.948Z,30.79
2022-08-26T13:53:38.550Z,30.54
2022-08-26T13:56:14.726Z,30.27
2022-08-26T13:58:44.382Z,30.04
2022-08-26T14:01:16.781Z,29.88
2022-08-26T14:03:46.284Z,29.74
2022-08-26T14:06:16.352Z,29.56
2022-08-26T14:08:45.800Z,29.44
2022-08-26T14:11:16.506Z,28.89
2022-08-26T14:13:45.587Z,28.24
2022-08-26T14:16:22.843Z,27.12
2022-08-26T14:18:53.021Z,26.84
2022-08-26T14:21:22.618Z,25.95
2022-08-26T14:23:51.747Z,25.27
2022-08-26T14:26:28.748Z,24.68
2022-08-26T14:29:00.303Z,23.71
2022-08-26T14:31:32.113Z,22.75
2022-08-26T14:34:04.928Z,22.23
2022-08-26T14:36:35.358Z,21.88
2022-08-26T14:39:10.825Z,21.48
2022-08-26T14:41:53.818Z,21.09
2022-08-26T14:44:27.097Z,20.87
2022-08-26T14:46:57.164Z,20.85
2022-08-26T14:49:27.434Z,21.01
2022-08-26T14:51:56.860Z,21.25
2022-08-26T14:54:24.963Z,21.49
2022-08-26T14:56:59.482Z,21.94
2022-08-26T14:59:31.881Z,22.20
2022-08-26T15:02:01.868Z,22.08
2022-08-26T15:04:31.325Z,22.09
2022-08-26T15:07:01.490Z,21.77
2022-08-26T15:09:34.170Z,21.47
2022-08-26T15:12:05.873Z,21.61
2022-08-26T15:14:34.595Z,21.67
2022-08-26T15:17:03.702Z,21.80
2022-08-26T15:19:32.679Z,21.65
2022-08-26T15:22:01.581Z,21.56
2022-08-26T15:24:30.537Z,21.57
2022-08-26T15:26:59.681Z,21.66
2022-08-26T15:29:30.166Z,21.63
2022-08-26T15:32:01.770Z,21.56
2022-08-26T15:34:32.101Z,21.38
2022-08-26T15:37:01.569Z,21.34
2022-08-26T15:39:30.795Z,21.27
2022-08-26T15:42:00.534Z,21.15
2022-08-26T15:44:31.016Z,21.12
2022-08-26T15:47:00.082Z,21.05
2022-08-26T15:49:29.034Z,20.75
2022-08-26T15:51:58.036Z,21.01
2022-08-26T15:54:26.974Z,20.77
2022-08-26T15:56:57.166Z,21.24
2022-08-26T15:59:26.176Z,21.33
2022-08-26T16:01:57.954Z,21.42
2022-08-26T16:04:27.384Z,21.45
2022-08-26T16:06:56.753Z,21.43
2022-08-26T16:09:27.348Z,21.06
2022-08-26T16:11:57.028Z,21.41
2022-08-26T16:14:27.266Z,21.40
2022-08-26T16:16:57.829Z,21.40
2022-08-26T16:19:26.923Z,21.35
2022-08-26T16:21:56.093Z,21.28
2022-08-26T16:24:30.210Z,21.26
2022-08-26T16:26:59.777Z,21.25
2022-08-26T16:29:29.291Z,21.30
2022-08-26T16:31:59.746Z,21.28
2022-08-26T16:34:28.720Z,21.24
2022-08-26T16:36:57.721Z,21.21
2022-08-26T16:39:26.753Z,21.15
2022-08-26T16:41:55.697Z,21.07
2022-08-26T16:44:24.814Z,21.04
2022-08-26T16:47:01.489Z,21.02
2022-08-26T16:49:30.365Z,21.00
2022-08-26T16:51:59.399Z,20.97
2022-08-26T16:54:28.512Z,20.91
2022-08-26T16:56:57.673Z,20.87
2022-08-26T16:59:26.884Z,20.85
2022-08-26T17:01:56.489Z,20.84
2022-08-26T17:04:27.270Z,20.82
2022-08-26T17:06:56.703Z,20.72
2022-08-26T17:09:26.120Z,20.69
2022-08-26T17:11:57.683Z,20.70
2022-08-26T17:14:26.997Z,20.75
2022-08-26T17:16:57.135Z,20.73
2022-08-26T17:19:27.906Z,20.74
2022-08-26T17:21:56.979Z,20.77
2022-08-26T17:24:25.915Z,20.78
2022-08-26T17:26:55.750Z,20.84
2022-08-26T17:29:24.886Z,20.79
2022-08-26T17:31:53.909Z,20.75
2022-08-26T17:34:23.604Z,20.68
2022-08-26T17:36:54.088Z,20.68
2022-08-26T17:39:23.103Z,20.65
2022-08-26T17:41:52.133Z,20.59
2022-08-26T17:44:20.790Z,20.37
2022-08-26T17:46:49.937Z,20.59
2022-08-26T17:49:18.987Z,20.58
2022-08-26T17:51:47.983Z,20.49
2022-08-26T17:54:18.402Z,20.41
2022-08-26T17:56:47.651Z,20.32
2022-08-26T17:59:17.301Z,20.30
2022-08-26T18:01:56.836Z,20.25
2022-08-26T18:04:25.960Z,20.19
2022-08-26T18:06:54.989Z,20.16
2022-08-26T18:09:25.484Z,20.16
2022-08-26T18:11:57.507Z,20.25
2022-08-26T18:14:26.665Z,20.59
2022-08-26T18:16:55.827Z,20.76
2022-08-26T18:19:24.747Z,20.61
2022-08-26T18:21:53.773Z,20.45
2022-08-26T18:24:24.637Z,20.37
2022-08-26T18:27:04.283Z,20.34
2022-08-26T18:29:33.493Z,20.31
2022-08-26T18:32:03.597Z,20.32
2022-08-26T18:34:32.771Z,20.33
2022-08-26T18:37:01.792Z,20.33
2022-08-26T18:39:32.437Z,20.35
2022-08-26T18:42:01.573Z,20.37
2022-08-26T18:44:30.562Z,20.35
2022-08-26T18:46:59.894Z,20.34
2022-08-26T18:49:29.407Z,20.32
2022-08-26T18:51:59.130Z,20.33
2022-08-26T18:54:32.850Z,20.36
2022-08-26T18:57:02.926Z,20.36
2022-08-26T18:59:31.937Z,20.38
2022-08-26T19:02:01.342Z,20.40
2022-08-26T19:04:30.956Z,20.43
2022-08-26T19:06:59.970Z,20.43
2022-08-26T19:09:28.967Z,20.48
2022-08-26T19:11:59.527Z,20.46
2022-08-26T19:14:31.325Z,20.26
2022-08-26T19:17:00.577Z,20.43
2022-08-26T19:19:30.253Z,20.41
2022-08-26T19:21:59.144Z,20.41
2022-08-26T19:24:28.546Z,20.43
2022-08-26T19:27:01.998Z,20.34
2022-08-26T19:29:34.345Z,20.38
2022-08-26T19:32:04.260Z,20.51
2022-08-26T19:34:33.313Z,20.54
2022-08-26T19:37:02.603Z,20.56
2022-08-26T19:39:31.556Z,20.58
2022-08-26T19:42:01.627Z,20.59
2022-08-26T19:44:47.665Z,20.59
2022-08-26T19:47:16.803Z,20.58
2022-08-26T19:49:45.779Z,20.59
2022-08-26T19:52:14.806Z,20.61
2022-08-26T19:54:44.489Z,20.63
2022-08-26T19:57:14.810Z,20.66
2022-08-26T19:59:44.460Z,20.74
2022-08-26T20:02:14.890Z,20.13
2022-08-26T20:04:44.314Z,20.80
2022-08-26T20:07:18.566Z,20.54
2022-08-26T20:09:48.600Z,20.76
2022-08-26T20:12:19.911Z,20.42
2022-08-26T20:14:48.849Z,20.64
2022-08-26T20:17:17.704Z,20.60
2022-08-26T20:20:03.834Z,20.57
2022-08-26T20:22:32.658Z,20.39
2022-08-26T20:25:01.674Z,20.48
2022-08-26T20:27:37.922Z,20.49
2022-08-26T20:30:13.027Z,20.42
2022-08-26T20:32:42.971Z,20.50
2022-08-26T20:35:15.100Z,20.51
2022-08-26T20:37:44.148Z,20.50
2022-08-26T20:40:15.745Z,20.44
2022-08-26T20:42:46.178Z,20.54
2022-08-26T20:45:15.259Z,20.58
2022-08-26T20:47:44.238Z,20.63
2022-08-26T20:50:13.162Z,20.62
2022-08-26T20:52:42.076Z,20.62
2022-08-26T20:55:12.117Z,20.62
2022-08-26T20:57:43.397Z,20.59
2022-08-26T21:00:18.194Z,20.58
2022-08-26T21:02:49.305Z,20.61
2022-08-26T21:05:21.622Z,20.62
2022-08-26T21:07:51.530Z,20.60
2022-08-26T21:10:23.843Z,20.56
2022-08-26T21:12:53.010Z,20.50
2022-08-26T21:15:25.058Z,20.48
2022-08-26T21:17:54.079Z,20.40
2022-08-26T21:20:23.932Z,20.36
2022-08-26T21:23:02.121Z,19.52
2022-08-26T21:25:31.567Z,20.32
2022-08-26T21:28:00.661Z,20.31
2022-08-26T21:30:34.820Z,20.31
2022-08-26T21:33:10.529Z,19.93
2022-08-26T21:35:39.507Z,20.25
2022-08-26T21:38:08.861Z,20.25
2022-08-26T21:40:37.974Z,20.17
2022-08-26T21:43:13.214Z,20.14
2022-08-26T21:45:59.508Z,20.08
2022-08-26T21:48:33.208Z,20.07
2022-08-26T21:51:17.251Z,19.91
2022-08-26T21:53:46.303Z,20.05
2022-08-26T21:56:17.908Z,20.01
2022-08-26T21:58:47.602Z,20.07
2022-08-26T22:01:21.477Z,19.05
2022-08-26T22:03:52.649Z,19.60
2022-08-26T22:06:25.195Z,19.99
2022-08-26T22:08:56.052Z,19.97
2022-08-26T22:11:26.027Z,19.91
2022-08-26T22:13:57.048Z,19.93
2022-08-26T22:16:28.837Z,19.94
2022-08-26T22:18:57.918Z,19.90
2022-08-26T22:21:28.748Z,19.67
2022-08-26T22:23:59.090Z,18.97
2022-08-26T22:26:32.705Z,19.59
2022-08-26T22:29:04.902Z,19.70
2022-08-26T22:31:37.564Z,19.64
2022-08-26T22:34:11.285Z,18.30
2022-08-26T22:36:44.446Z,19.54
2022-08-26T22:39:14.639Z,19.50
2022-08-26T22:41:43.782Z,19.53
2022-08-26T22:44:13.565Z,19.52
2022-08-26T22:46:45.219Z,19.51
2022-08-26T22:49:16.963Z,19.48
2022-08-26T22:51:46.845Z,18.70
2022-08-26T22:54:17.410Z,18.61
2022-08-26T22:56:47.012Z,19.28
2022-08-26T22:59:16.856Z,19.50
2022-08-26T23:01:47.542Z,19.57
2022-08-26T23:04:16.534Z,19.33
2022-08-26T23:06:47.450Z,19.11
2022-08-26T23:09:18.359Z,19.51
2022-08-26T23:11:48.798Z,19.60
2022-08-26T23:14:19.435Z,19.56
2022-08-26T23:16:49.846Z,19.48
2022-08-26T23:19:22.061Z,19.39
2022-08-26T23:21:51.948Z,19.38
2022-08-26T23:24:20.963Z,19.37
2022-08-26T23:26:49.947Z,19.28
2022-08-26T23:29:18.961Z,19.15
2022-08-26T23:31:49.332Z,19.09
2022-08-26T23:34:36.031Z,19.06
2022-08-26T23:37:07.089Z,18.99
2022-08-26T23:39:36.540Z,18.93
2022-08-26T23:42:06.691Z,18.95
2022-08-26T23:44:36.029Z,19.01
2022-08-26T23:47:06.810Z,19.04
2022-08-26T23:49:36.231Z,19.07
2022-08-26T23:52:24.279Z,19.11
2022-08-26T23:54:53.415Z,19.13
2022-08-26T23:57:24.864Z,19.16
2022-08-26T23:59:54.395Z,19.14
